sensor_id;sensor_type;location;lat;lon;timestamp;P1;durP1;ratioP1;P2;durP2;ratioP2
72156;SDS011;60035;52.122;5.406;2023-03-01T00:01:29;15.45;;;7.07;;
72156;SDS011;60035;52.122;5.406;2023-03-01T00:04:00;16.48;;;7.40;;
72156;SDS011;60035;52.122;5.406;2023-03-01T00:06:27;14.73;;;7.70;;
72156;SDS011;60035;52.122;5.406;2023-03-01T00:08:54;16.08;;;7.78;;
72156;SDS011;60035;52.122;5.406;2023-03-01T00:13:48;16.20;;;7.53;;
72156;SDS011;60035;52.122;5.406;2023-03-01T00:16:18;15.35;;;7.93;;
72156;SDS011;60035;52.122;5.406;2023-03-01T00:18:49;15.55;;;7.25;;
72156;SDS011;60035;52.122;5.406;2023-03-01T00:21:17;16.63;;;7.60;;
72156;SDS011;60035;52.122;5.406;2023-03-01T00:23:46;13.45;;;6.55;;
72156;SDS011;60035;52.122;5.406;2023-03-01T00:26:14;13.15;;;7.10;;
72156;SDS011;60035;52.122;5.406;2023-03-01T00:28:42;13.90;;;7.40;;
72156;SDS011;60035;52.122;5.406;2023-03-01T00:31:10;13.18;;;6.75;;
72156;SDS011;60035;52.122;5.406;2023-03-01T00:33:39;14.45;;;7.07;;
72156;SDS011;60035;52.122;5.406;2023-03-01T00:36:06;15.73;;;6.90;;
72156;SDS011;60035;52.122;5.406;2023-03-01T00:38:35;17.35;;;8.63;;
72156;SDS011;60035;52.122;5.406;2023-03-01T00:41:03;15.20;;;7.28;;
72156;SDS011;60035;52.122;5.406;2023-03-01T00:43:35;13.93;;;6.57;;
72156;SDS011;60035;52.122;5.406;2023-03-01T00:46:04;14.18;;;6.82;;
72156;SDS011;60035;52.122;5.406;2023-03-01T00:48:33;13.85;;;6.78;;
72156;SDS011;60035;52.122;5.406;2023-03-01T00:51:11;15.35;;;7.40;;
72156;SDS011;60035;52.122;5.406;2023-03-01T00:53:38;15.10;;;7.10;;
72156;SDS011;60035;52.122;5.406;2023-03-01T00:56:06;15.95;;;7.07;;
72156;SDS011;60035;52.122;5.406;2023-03-01T00:58:34;18.33;;;7.40;;
72156;SDS011;60035;52.122;5.406;2023-03-01T01:01:07;13.68;;;6.95;;
72156;SDS011;60035;52.122;5.406;2023-03-01T01:03:59;17.60;;;7.15;;
72156;SDS011;60035;52.122;5.406;2023-03-01T01:06:28;14.98;;;7.07;;
72156;SDS011;60035;52.122;5.406;2023-03-01T01:08:58;18.02;;;7.30;;
72156;SDS011;60035;52.122;5.406;2023-03-01T01:11:25;16.92;;;6.72;;
72156;SDS011;60035;52.122;5.406;2023-03-01T01:13:56;16.65;;;6.95;;
72156;SDS011;60035;52.122;5.406;2023-03-01T01:16:24;16.85;;;7.70;;
72156;SDS011;60035;52.122;5.406;2023-03-01T01:18:51;19.63;;;7.20;;
72156;SDS011;60035;52.122;5.406;2023-03-01T01:21:19;14.57;;;7.20;;
72156;SDS011;60035;52.122;5.406;2023-03-01T01:23:48;16.33;;;6.90;;
72156;SDS011;60035;52.122;5.406;2023-03-01T01:26:21;15.27;;;7.07;;
72156;SDS011;60035;52.122;5.406;2023-03-01T01:28:50;15.88;;;7.57;;
72156;SDS011;60035;52.122;5.406;2023-03-01T01:31:17;12.60;;;7.15;;
72156;SDS011;60035;52.122;5.406;2023-03-01T01:33:45;14.20;;;7.13;;
72156;SDS011;60035;52.122;5.406;2023-03-01T01:36:11;16.13;;;6.45;;
72156;SDS011;60035;52.122;5.406;2023-03-01T01:38:38;12.73;;;6.05;;
72156;SDS011;60035;52.122;5.406;2023-03-01T01:41:06;13.80;;;6.55;;
72156;SDS011;60035;52.122;5.406;2023-03-01T01:43:34;13.88;;;6.57;;
72156;SDS011;60035;52.122;5.406;2023-03-01T01:46:04;13.38;;;6.60;;
72156;SDS011;60035;52.122;5.406;2023-03-01T01:49:01;16.52;;;7.32;;
72156;SDS011;60035;52.122;5.406;2023-03-01T01:51:32;13.52;;;6.50;;
72156;SDS011;60035;52.122;5.406;2023-03-01T01:54:09;16.52;;;6.40;;
72156;SDS011;60035;52.122;5.406;2023-03-01T01:56:42;13.85;;;5.75;;
72156;SDS011;60035;52.122;5.406;2023-03-01T02:01:40;14.48;;;6.20;;
72156;SDS011;60035;52.122;5.406;2023-03-01T02:04:12;12.02;;;6.15;;
72156;SDS011;60035;52.122;5.406;2023-03-01T02:06:43;15.05;;;6.38;;
72156;SDS011;60035;52.122;5.406;2023-03-01T02:09:14;15.57;;;7.28;;
72156;SDS011;60035;52.122;5.406;2023-03-01T02:11:43;14.60;;;6.90;;
72156;SDS011;60035;52.122;5.406;2023-03-01T02:14:10;15.85;;;6.75;;
72156;SDS011;60035;52.122;5.406;2023-03-01T02:16:37;17.15;;;6.68;;
72156;SDS011;60035;52.122;5.406;2023-03-01T02:19:03;14.90;;;7.30;;
72156;SDS011;60035;52.122;5.406;2023-03-01T02:27:10;16.13;;;7.15;;
72156;SDS011;60035;52.122;5.406;2023-03-01T02:29:38;15.70;;;7.03;;
72156;SDS011;60035;52.122;5.406;2023-03-01T02:32:04;15.50;;;7.47;;
72156;SDS011;60035;52.122;5.406;2023-03-01T02:34:32;16.25;;;8.02;;
72156;SDS011;60035;52.122;5.406;2023-03-01T02:37:02;15.18;;;7.93;;
72156;SDS011;60035;52.122;5.406;2023-03-01T02:39:33;14.13;;;6.55;;
72156;SDS011;60035;52.122;5.406;2023-03-01T02:42:11;18.85;;;7.05;;
72156;SDS011;60035;52.122;5.406;2023-03-01T02:44:40;15.80;;;7.22;;
72156;SDS011;60035;52.122;5.406;2023-03-01T02:47:07;15.25;;;7.03;;
72156;SDS011;60035;52.122;5.406;2023-03-01T02:49:35;16.15;;;7.47;;
72156;SDS011;60035;52.122;5.406;2023-03-01T02:57:21;15.57;;;6.85;;
72156;SDS011;60035;52.122;5.406;2023-03-01T02:59:48;13.82;;;7.53;;
72156;SDS011;60035;52.122;5.406;2023-03-01T03:02:19;15.45;;;7.10;;
72156;SDS011;60035;52.122;5.406;2023-03-01T03:05:09;15.20;;;6.35;;
72156;SDS011;60035;52.122;5.406;2023-03-01T03:07:41;14.80;;;6.82;;
72156;SDS011;60035;52.122;5.406;2023-03-01T03:10:10;13.77;;;6.68;;
72156;SDS011;60035;52.122;5.406;2023-03-01T03:12:40;12.05;;;6.82;;
72156;SDS011;60035;52.122;5.406;2023-03-01T03:15:07;15.18;;;7.40;;
72156;SDS011;60035;52.122;5.406;2023-03-01T03:17:36;15.30;;;7.45;;
72156;SDS011;60035;52.122;5.406;2023-03-01T03:20:04;12.77;;;6.63;;
72156;SDS011;60035;52.122;5.406;2023-03-01T03:22:31;15.55;;;7.90;;
72156;SDS011;60035;52.122;5.406;2023-03-01T03:25:00;16.63;;;7.88;;
72156;SDS011;60035;52.122;5.406;2023-03-01T03:27:27;16.48;;;8.38;;
72156;SDS011;60035;52.122;5.406;2023-03-01T03:29:53;14.38;;;7.05;;
72156;SDS011;60035;52.122;5.406;2023-03-01T03:32:20;17.90;;;7.03;;
72156;SDS011;60035;52.122;5.406;2023-03-01T03:34:48;13.60;;;7.07;;
72156;SDS011;60035;52.122;5.406;2023-03-01T03:37:15;15.40;;;7.50;;
72156;SDS011;60035;52.122;5.406;2023-03-01T03:40:00;15.93;;;7.28;;
72156;SDS011;60035;52.122;5.406;2023-03-01T03:42:26;15.15;;;7.30;;
72156;SDS011;60035;52.122;5.406;2023-03-01T03:44:53;14.13;;;7.03;;
72156;SDS011;60035;52.122;5.406;2023-03-01T03:47:20;13.48;;;6.18;;
72156;SDS011;60035;52.122;5.406;2023-03-01T03:49:46;15.18;;;7.32;;
72156;SDS011;60035;52.122;5.406;2023-03-01T03:52:12;13.90;;;5.85;;
72156;SDS011;60035;52.122;5.406;2023-03-01T03:54:40;13.27;;;7.10;;
72156;SDS011;60035;52.122;5.406;2023-03-01T03:57:06;12.73;;;6.57;;
72156;SDS011;60035;52.122;5.406;2023-03-01T03:59:33;17.30;;;7.13;;
72156;SDS011;60035;52.122;5.406;2023-03-01T04:02:00;14.77;;;6.05;;
72156;SDS011;60035;52.122;5.406;2023-03-01T04:04:27;14.20;;;6.68;;
72156;SDS011;60035;52.122;5.406;2023-03-01T04:06:53;12.23;;;6.22;;
72156;SDS011;60035;52.122;5.406;2023-03-01T04:09:20;15.65;;;7.00;;
72156;SDS011;60035;52.122;5.406;2023-03-01T04:11:46;15.30;;;7.57;;
72156;SDS011;60035;52.122;5.406;2023-03-01T04:14:13;16.05;;;7.03;;
72156;SDS011;60035;52.122;5.406;2023-03-01T04:16:39;14.25;;;7.07;;
72156;SDS011;60035;52.122;5.406;2023-03-01T04:19:06;15.18;;;7.47;;
72156;SDS011;60035;52.122;5.406;2023-03-01T04:21:32;15.25;;;7.03;;
72156;SDS011;60035;52.122;5.406;2023-03-01T04:23:59;13.95;;;6.70;;
72156;SDS011;60035;52.122;5.406;2023-03-01T04:26:25;16.70;;;7.75;;
72156;SDS011;60035;52.122;5.406;2023-03-01T04:28:53;14.50;;;7.35;;
72156;SDS011;60035;52.122;5.406;2023-03-01T04:31:20;17.48;;;7.10;;
72156;SDS011;60035;52.122;5.406;2023-03-01T04:33:49;15.57;;;7.07;;
72156;SDS011;60035;52.122;5.406;2023-03-01T04:36:20;14.73;;;6.88;;
72156;SDS011;60035;52.122;5.406;2023-03-01T04:38:49;15.63;;;7.53;;
72156;SDS011;60035;52.122;5.406;2023-03-01T04:41:17;14.48;;;7.10;;
72156;SDS011;60035;52.122;5.406;2023-03-01T04:43:45;14.80;;;6.90;;
72156;SDS011;60035;52.122;5.406;2023-03-01T04:46:13;13.18;;;6.07;;
72156;SDS011;60035;52.122;5.406;2023-03-01T04:48:42;15.18;;;6.95;;
72156;SDS011;60035;52.122;5.406;2023-03-01T04:51:10;14.73;;;5.90;;
72156;SDS011;60035;52.122;5.406;2023-03-01T04:53:41;14.25;;;6.93;;
72156;SDS011;60035;52.122;5.406;2023-03-01T04:56:07;15.77;;;6.45;;
72156;SDS011;60035;52.122;5.406;2023-03-01T04:58:34;14.77;;;6.47;;
72156;SDS011;60035;52.122;5.406;2023-03-01T05:01:01;13.90;;;7.07;;
72156;SDS011;60035;52.122;5.406;2023-03-01T05:03:44;14.98;;;7.13;;
72156;SDS011;60035;52.122;5.406;2023-03-01T05:06:15;14.82;;;7.10;;
72156;SDS011;60035;52.122;5.406;2023-03-01T05:08:43;15.07;;;6.78;;
72156;SDS011;60035;52.122;5.406;2023-03-01T05:11:10;15.38;;;7.18;;
72156;SDS011;60035;52.122;5.406;2023-03-01T05:13:38;13.90;;;6.07;;
72156;SDS011;60035;52.122;5.406;2023-03-01T05:16:05;15.48;;;7.50;;
72156;SDS011;60035;52.122;5.406;2023-03-01T05:18:33;14.18;;;7.05;;
72156;SDS011;60035;52.122;5.406;2023-03-01T05:21:04;16.25;;;6.55;;
72156;SDS011;60035;52.122;5.406;2023-03-01T05:23:33;19.70;;;8.00;;
72156;SDS011;60035;52.122;5.406;2023-03-01T05:26:00;16.17;;;6.95;;
72156;SDS011;60035;52.122;5.406;2023-03-01T05:28:28;19.70;;;8.25;;
72156;SDS011;60035;52.122;5.406;2023-03-01T05:30:56;17.20;;;7.57;;
72156;SDS011;60035;52.122;5.406;2023-03-01T05:33:23;23.15;;;7.88;;
72156;SDS011;60035;52.122;5.406;2023-03-01T05:35:50;16.83;;;7.80;;
72156;SDS011;60035;52.122;5.406;2023-03-01T05:38:19;15.35;;;6.85;;
72156;SDS011;60035;52.122;5.406;2023-03-01T05:40:47;17.60;;;8.20;;
72156;SDS011;60035;52.122;5.406;2023-03-01T05:43:16;16.60;;;7.85;;
72156;SDS011;60035;52.122;5.406;2023-03-01T05:45:43;15.45;;;7.60;;
72156;SDS011;60035;52.122;5.406;2023-03-01T05:48:10;17.27;;;8.15;;
72156;SDS011;60035;52.122;5.406;2023-03-01T05:50:42;17.73;;;7.90;;
72156;SDS011;60035;52.122;5.406;2023-03-01T05:53:11;16.55;;;8.30;;
72156;SDS011;60035;52.122;5.406;2023-03-01T05:55:43;16.20;;;7.50;;
72156;SDS011;60035;52.122;5.406;2023-03-01T05:58:12;15.25;;;7.95;;
72156;SDS011;60035;52.122;5.406;2023-03-01T06:00:46;16.88;;;7.50;;
72156;SDS011;60035;52.122;5.406;2023-03-01T06:03:14;14.43;;;7.65;;
72156;SDS011;60035;52.122;5.406;2023-03-01T06:05:42;16.50;;;7.82;;
72156;SDS011;60035;52.122;5.406;2023-03-01T06:08:10;15.73;;;7.60;;
72156;SDS011;60035;52.122;5.406;2023-03-01T06:10:37;15.90;;;8.27;;
72156;SDS011;60035;52.122;5.406;2023-03-01T06:13:04;17.63;;;8.13;;
72156;SDS011;60035;52.122;5.406;2023-03-01T06:15:30;16.45;;;7.88;;
72156;SDS011;60035;52.122;5.406;2023-03-01T06:18:00;17.80;;;7.47;;
72156;SDS011;60035;52.122;5.406;2023-03-01T06:20:27;17.35;;;7.07;;
72156;SDS011;60035;52.122;5.406;2023-03-01T06:22:55;15.55;;;8.07;;
72156;SDS011;60035;52.122;5.406;2023-03-01T06:25:22;16.55;;;6.97;;
72156;SDS011;60035;52.122;5.406;2023-03-01T06:27:50;17.55;;;8.32;;
72156;SDS011;60035;52.122;5.406;2023-03-01T06:30:19;16.58;;;8.02;;
72156;SDS011;60035;52.122;5.406;2023-03-01T06:32:47;17.95;;;7.78;;
72156;SDS011;60035;52.122;5.406;2023-03-01T06:35:13;17.52;;;8.07;;
72156;SDS011;60035;52.122;5.406;2023-03-01T06:37:44;17.70;;;7.60;;
72156;SDS011;60035;52.122;5.406;2023-03-01T06:40:11;17.23;;;7.60;;
72156;SDS011;60035;52.122;5.406;2023-03-01T06:42:40;15.90;;;7.18;;
72156;SDS011;60035;52.122;5.406;2023-03-01T06:45:08;19.85;;;7.40;;
72156;SDS011;60035;52.122;5.406;2023-03-01T06:47:35;17.83;;;8.15;;
72156;SDS011;60035;52.122;5.406;2023-03-01T06:50:02;18.25;;;8.63;;
72156;SDS011;60035;52.122;5.406;2023-03-01T06:52:29;17.10;;;7.85;;
72156;SDS011;60035;52.122;5.406;2023-03-01T06:54:56;16.75;;;8.82;;
72156;SDS011;60035;52.122;5.406;2023-03-01T06:57:23;15.40;;;7.03;;
72156;SDS011;60035;52.122;5.406;2023-03-01T06:59:50;13.98;;;7.13;;
72156;SDS011;60035;52.122;5.406;2023-03-01T07:02:16;17.42;;;7.85;;
72156;SDS011;60035;52.122;5.406;2023-03-01T07:04:43;18.70;;;7.63;;
72156;SDS011;60035;52.122;5.406;2023-03-01T07:07:09;16.65;;;7.90;;
72156;SDS011;60035;52.122;5.406;2023-03-01T07:09:36;18.65;;;7.78;;
72156;SDS011;60035;52.122;5.406;2023-03-01T07:12:03;18.50;;;8.35;;
72156;SDS011;60035;52.122;5.406;2023-03-01T07:14:30;16.63;;;8.70;;
72156;SDS011;60035;52.122;5.406;2023-03-01T07:16:56;16.90;;;7.07;;
72156;SDS011;60035;52.122;5.406;2023-03-01T07:19:23;14.85;;;8.10;;
72156;SDS011;60035;52.122;5.406;2023-03-01T07:21:49;17.33;;;6.95;;
72156;SDS011;60035;52.122;5.406;2023-03-01T07:24:16;18.08;;;8.10;;
72156;SDS011;60035;52.122;5.406;2023-03-01T07:26:42;15.45;;;7.55;;
72156;SDS011;60035;52.122;5.406;2023-03-01T07:29:09;20.10;;;8.45;;
72156;SDS011;60035;52.122;5.406;2023-03-01T07:31:36;16.25;;;8.13;;
72156;SDS011;60035;52.122;5.406;2023-03-01T07:34:04;20.88;;;8.40;;
72156;SDS011;60035;52.122;5.406;2023-03-01T07:36:30;17.23;;;8.05;;
72156;SDS011;60035;52.122;5.406;2023-03-01T07:38:58;13.98;;;7.15;;
72156;SDS011;60035;52.122;5.406;2023-03-01T07:41:24;17.30;;;8.23;;
72156;SDS011;60035;52.122;5.406;2023-03-01T07:43:51;17.27;;;7.70;;
72156;SDS011;60035;52.122;5.406;2023-03-01T07:46:17;18.05;;;8.50;;
72156;SDS011;60035;52.122;5.406;2023-03-01T07:48:45;19.42;;;8.93;;
72156;SDS011;60035;52.122;5.406;2023-03-01T07:51:12;20.15;;;8.68;;
72156;SDS011;60035;52.122;5.406;2023-03-01T07:53:40;23.67;;;9.93;;
72156;SDS011;60035;52.122;5.406;2023-03-01T07:56:10;19.90;;;9.35;;
72156;SDS011;60035;52.122;5.406;2023-03-01T07:58:39;20.63;;;9.13;;
72156;SDS011;60035;52.122;5.406;2023-03-01T08:01:09;22.17;;;8.70;;
72156;SDS011;60035;52.122;5.406;2023-03-01T08:03:38;20.40;;;8.82;;
72156;SDS011;60035;52.122;5.406;2023-03-01T08:06:06;21.00;;;8.43;;
72156;SDS011;60035;52.122;5.406;2023-03-01T08:08:34;20.92;;;9.57;;
72156;SDS011;60035;52.122;5.406;2023-03-01T08:11:02;18.58;;;9.55;;
72156;SDS011;60035;52.122;5.406;2023-03-01T08:13:31;22.42;;;10.25;;
72156;SDS011;60035;52.122;5.406;2023-03-01T08:16:01;23.58;;;10.63;;
72156;SDS011;60035;52.122;5.406;2023-03-01T08:18:32;23.60;;;9.85;;
72156;SDS011;60035;52.122;5.406;2023-03-01T08:21:06;20.23;;;9.82;;
72156;SDS011;60035;52.122;5.406;2023-03-01T08:23:35;20.98;;;9.38;;
72156;SDS011;60035;52.122;5.406;2023-03-01T08:26:09;19.23;;;9.38;;
72156;SDS011;60035;52.122;5.406;2023-03-01T08:28:38;16.92;;;8.55;;
72156;SDS011;60035;52.122;5.406;2023-03-01T08:31:15;16.80;;;7.70;;
72156;SDS011;60035;52.122;5.406;2023-03-01T08:33:44;19.08;;;8.25;;
72156;SDS011;60035;52.122;5.406;2023-03-01T08:36:17;15.35;;;7.78;;
72156;SDS011;60035;52.122;5.406;2023-03-01T08:38:44;16.17;;;7.22;;
72156;SDS011;60035;52.122;5.406;2023-03-01T08:41:10;15.98;;;7.28;;
72156;SDS011;60035;52.122;5.406;2023-03-01T08:43:37;16.00;;;7.65;;
72156;SDS011;60035;52.122;5.406;2023-03-01T08:46:03;15.60;;;7.10;;
72156;SDS011;60035;52.122;5.406;2023-03-01T08:48:30;16.75;;;6.72;;
72156;SDS011;60035;52.122;5.406;2023-03-01T08:50:57;15.32;;;7.55;;
72156;SDS011;60035;52.122;5.406;2023-03-01T08:53:23;16.20;;;7.38;;
72156;SDS011;60035;52.122;5.406;2023-03-01T08:55:50;16.95;;;6.65;;
72156;SDS011;60035;52.122;5.406;2023-03-01T08:58:16;14.02;;;6.45;;
72156;SDS011;60035;52.122;5.406;2023-03-01T09:00:43;14.43;;;6.50;;
72156;SDS011;60035;52.122;5.406;2023-03-01T09:03:10;15.18;;;6.97;;
72156;SDS011;60035;52.122;5.406;2023-03-01T09:05:37;16.10;;;6.70;;
72156;SDS011;60035;52.122;5.406;2023-03-01T09:08:04;13.38;;;6.00;;
72156;SDS011;60035;52.122;5.406;2023-03-01T09:10:30;12.75;;;6.03;;
72156;SDS011;60035;52.122;5.406;2023-03-01T09:12:57;11.88;;;5.30;;
72156;SDS011;60035;52.122;5.406;2023-03-01T09:15:23;12.90;;;6.00;;
72156;SDS011;60035;52.122;5.406;2023-03-01T09:17:50;12.98;;;6.50;;
72156;SDS011;60035;52.122;5.406;2023-03-01T09:20:17;12.73;;;4.88;;
72156;SDS011;60035;52.122;5.406;2023-03-01T09:22:44;13.25;;;6.03;;
72156;SDS011;60035;52.122;5.406;2023-03-01T09:25:11;12.23;;;5.78;;
72156;SDS011;60035;52.122;5.406;2023-03-01T09:27:37;11.43;;;5.68;;
72156;SDS011;60035;52.122;5.406;2023-03-01T09:30:04;11.50;;;5.18;;
72156;SDS011;60035;52.122;5.406;2023-03-01T09:32:31;11.05;;;5.15;;
72156;SDS011;60035;52.122;5.406;2023-03-01T09:34:58;10.25;;;4.97;;
72156;SDS011;60035;52.122;5.406;2023-03-01T09:37:27;10.65;;;4.82;;
72156;SDS011;60035;52.122;5.406;2023-03-01T09:39:53;11.02;;;4.85;;
72156;SDS011;60035;52.122;5.406;2023-03-01T09:42:20;10.23;;;4.82;;
72156;SDS011;60035;52.122;5.406;2023-03-01T09:47:29;11.75;;;4.80;;
72156;SDS011;60035;52.122;5.406;2023-03-01T09:50:05;9.40;;;4.68;;
72156;SDS011;60035;52.122;5.406;2023-03-01T09:52:46;10.68;;;4.57;;
72156;SDS011;60035;52.122;5.406;2023-03-01T09:55:26;10.32;;;4.25;;
72156;SDS011;60035;52.122;5.406;2023-03-01T10:00:46;10.23;;;4.47;;
72156;SDS011;60035;52.122;5.406;2023-03-01T10:05:59;7.72;;;3.00;;
72156;SDS011;60035;52.122;5.406;2023-03-01T10:08:38;7.95;;;3.25;;
72156;SDS011;60035;52.122;5.406;2023-03-01T10:11:17;8.07;;;2.90;;
72156;SDS011;60035;52.122;5.406;2023-03-01T10:13:52;7.93;;;3.08;;
72156;SDS011;60035;52.122;5.406;2023-03-01T10:19:05;8.73;;;3.13;;
72156;SDS011;60035;52.122;5.406;2023-03-01T10:21:44;8.65;;;3.10;;
72156;SDS011;60035;52.122;5.406;2023-03-01T10:24:13;9.23;;;3.75;;
72156;SDS011;60035;52.122;5.406;2023-03-01T10:26:50;8.60;;;3.95;;
72156;SDS011;60035;52.122;5.406;2023-03-01T10:29:27;7.75;;;3.50;;
72156;SDS011;60035;52.122;5.406;2023-03-01T10:32:02;8.75;;;3.72;;
72156;SDS011;60035;52.122;5.406;2023-03-01T10:34:32;11.73;;;4.25;;
72156;SDS011;60035;52.122;5.406;2023-03-01T10:37:01;7.82;;;3.70;;
72156;SDS011;60035;52.122;5.406;2023-03-01T10:39:36;8.75;;;3.90;;
72156;SDS011;60035;52.122;5.406;2023-03-01T10:42:03;8.98;;;3.17;;
72156;SDS011;60035;52.122;5.406;2023-03-01T10:44:36;8.38;;;2.90;;
72156;SDS011;60035;52.122;5.406;2023-03-01T10:47:19;8.52;;;3.70;;
72156;SDS011;60035;52.122;5.406;2023-03-01T10:49:58;10.82;;;3.65;;
72156;SDS011;60035;52.122;5.406;2023-03-01T10:52:29;8.57;;;2.92;;
72156;SDS011;60035;52.122;5.406;2023-03-01T10:55:04;7.97;;;2.85;;
72156;SDS011;60035;52.122;5.406;2023-03-01T10:57:37;6.32;;;2.50;;
72156;SDS011;60035;52.122;5.406;2023-03-01T11:00:15;7.18;;;2.83;;
72156;SDS011;60035;52.122;5.406;2023-03-01T11:10:22;7.88;;;2.47;;
72156;SDS011;60035;52.122;5.406;2023-03-01T11:13:05;6.13;;;2.47;;
72156;SDS011;60035;52.122;5.406;2023-03-01T11:15:43;8.40;;;2.45;;
72156;SDS011;60035;52.122;5.406;2023-03-01T11:18:29;7.53;;;2.45;;
72156;SDS011;60035;52.122;5.406;2023-03-01T11:21:12;7.55;;;2.45;;
72156;SDS011;60035;52.122;5.406;2023-03-01T11:23:39;6.90;;;2.30;;
72156;SDS011;60035;52.122;5.406;2023-03-01T11:26:07;6.97;;;3.55;;
72156;SDS011;60035;52.122;5.406;2023-03-01T11:28:38;5.88;;;2.05;;
72156;SDS011;60035;52.122;5.406;2023-03-01T11:31:08;7.00;;;2.33;;
72156;SDS011;60035;52.122;5.406;2023-03-01T11:33:43;7.25;;;2.65;;
72156;SDS011;60035;52.122;5.406;2023-03-01T11:36:31;6.00;;;2.22;;
72156;SDS011;60035;52.122;5.406;2023-03-01T11:39:03;6.20;;;2.47;;
72156;SDS011;60035;52.122;5.406;2023-03-01T11:41:44;5.18;;;2.20;;
72156;SDS011;60035;52.122;5.406;2023-03-01T11:44:20;6.10;;;2.60;;
72156;SDS011;60035;52.122;5.406;2023-03-01T11:49:43;6.32;;;2.40;;
72156;SDS011;60035;52.122;5.406;2023-03-01T12:03:27;7.30;;;3.30;;
72156;SDS011;60035;52.122;5.406;2023-03-01T12:06:03;7.60;;;3.25;;
72156;SDS011;60035;52.122;5.406;2023-03-01T12:09:02;7.47;;;3.40;;
72156;SDS011;60035;52.122;5.406;2023-03-01T12:12:06;8.05;;;3.88;;
72156;SDS011;60035;52.122;5.406;2023-03-01T12:20:29;8.35;;;3.30;;
72156;SDS011;60035;52.122;5.406;2023-03-01T12:25:54;7.18;;;3.58;;
72156;SDS011;60035;52.122;5.406;2023-03-01T12:28:26;7.32;;;2.95;;
72156;SDS011;60035;52.122;5.406;2023-03-01T12:35:01;7.30;;;3.38;;
72156;SDS011;60035;52.122;5.406;2023-03-01T12:40:02;7.88;;;2.97;;
72156;SDS011;60035;52.122;5.406;2023-03-01T12:51:25;7.35;;;3.50;;
72156;SDS011;60035;52.122;5.406;2023-03-01T12:53:55;8.23;;;3.33;;
72156;SDS011;60035;52.122;5.406;2023-03-01T12:56:28;8.23;;;3.00;;
72156;SDS011;60035;52.122;5.406;2023-03-01T12:59:02;7.82;;;3.33;;
72156;SDS011;60035;52.122;5.406;2023-03-01T13:04:22;6.75;;;3.00;;
72156;SDS011;60035;52.122;5.406;2023-03-01T13:07:23;6.03;;;2.95;;
72156;SDS011;60035;52.122;5.406;2023-03-01T13:10:01;8.18;;;3.33;;
72156;SDS011;60035;52.122;5.406;2023-03-01T13:12:50;8.27;;;2.95;;
72156;SDS011;60035;52.122;5.406;2023-03-01T13:23:07;8.27;;;3.38;;
72156;SDS011;60035;52.122;5.406;2023-03-01T13:26:01;7.65;;;2.80;;
72156;SDS011;60035;52.122;5.406;2023-03-01T13:28:58;7.65;;;3.63;;
72156;SDS011;60035;52.122;5.406;2023-03-01T13:37:20;7.22;;;3.40;;
72156;SDS011;60035;52.122;5.406;2023-03-01T13:39:52;7.65;;;3.20;;
72156;SDS011;60035;52.122;5.406;2023-03-01T13:42:52;6.68;;;2.60;;
72156;SDS011;60035;52.122;5.406;2023-03-01T13:45:36;7.40;;;2.92;;
72156;SDS011;60035;52.122;5.406;2023-03-01T13:48:09;7.30;;;3.20;;
72156;SDS011;60035;52.122;5.406;2023-03-01T13:50:49;6.70;;;2.92;;
72156;SDS011;60035;52.122;5.406;2023-03-01T13:53:19;6.50;;;3.17;;
72156;SDS011;60035;52.122;5.406;2023-03-01T13:55:51;6.38;;;3.28;;
72156;SDS011;60035;52.122;5.406;2023-03-01T13:58:24;7.93;;;3.20;;
72156;SDS011;60035;52.122;5.406;2023-03-01T14:01:03;8.68;;;2.95;;
72156;SDS011;60035;52.122;5.406;2023-03-01T14:03:33;6.93;;;3.38;;
72156;SDS011;60035;52.122;5.406;2023-03-01T14:06:07;6.90;;;3.15;;
72156;SDS011;60035;52.122;5.406;2023-03-01T14:08:42;6.97;;;2.92;;
72156;SDS011;60035;52.122;5.406;2023-03-01T14:14:14;7.20;;;3.72;;
72156;SDS011;60035;52.122;5.406;2023-03-01T14:19:57;8.15;;;3.33;;
72156;SDS011;60035;52.122;5.406;2023-03-01T14:22:34;6.45;;;3.28;;
72156;SDS011;60035;52.122;5.406;2023-03-01T14:25:06;7.97;;;3.10;;
72156;SDS011;60035;52.122;5.406;2023-03-01T14:27:43;7.57;;;3.15;;
72156;SDS011;60035;52.122;5.406;2023-03-01T14:30:21;7.43;;;3.08;;
72156;SDS011;60035;52.122;5.406;2023-03-01T14:32:55;6.95;;;3.05;;
72156;SDS011;60035;52.122;5.406;2023-03-01T14:35:30;7.25;;;3.53;;
72156;SDS011;60035;52.122;5.406;2023-03-01T14:37:58;11.57;;;4.40;;
72156;SDS011;60035;52.122;5.406;2023-03-01T14:40:35;9.00;;;3.60;;
72156;SDS011;60035;52.122;5.406;2023-03-01T14:43:08;6.82;;;2.80;;
72156;SDS011;60035;52.122;5.406;2023-03-01T14:45:36;6.63;;;2.90;;
72156;SDS011;60035;52.122;5.406;2023-03-01T14:48:04;7.55;;;2.95;;
72156;SDS011;60035;52.122;5.406;2023-03-01T14:50:40;6.85;;;2.90;;
72156;SDS011;60035;52.122;5.406;2023-03-01T14:53:16;7.28;;;3.53;;
72156;SDS011;60035;52.122;5.406;2023-03-01T14:55:50;8.88;;;3.55;;
72156;SDS011;60035;52.122;5.406;2023-03-01T14:58:20;7.88;;;3.33;;
72156;SDS011;60035;52.122;5.406;2023-03-01T15:00:50;7.68;;;3.20;;
72156;SDS011;60035;52.122;5.406;2023-03-01T15:03:41;8.45;;;3.42;;
72156;SDS011;60035;52.122;5.406;2023-03-01T15:06:17;8.70;;;3.70;;
72156;SDS011;60035;52.122;5.406;2023-03-01T15:08:49;9.48;;;3.75;;
72156;SDS011;60035;52.122;5.406;2023-03-01T15:13:49;7.50;;;3.20;;
72156;SDS011;60035;52.122;5.406;2023-03-01T15:16:17;7.07;;;2.97;;
72156;SDS011;60035;52.122;5.406;2023-03-01T15:18:51;10.80;;;3.75;;
72156;SDS011;60035;52.122;5.406;2023-03-01T15:21:25;8.07;;;3.13;;
72156;SDS011;60035;52.122;5.406;2023-03-01T15:24:02;9.95;;;3.30;;
72156;SDS011;60035;52.122;5.406;2023-03-01T15:26:49;6.47;;;3.03;;
72156;SDS011;60035;52.122;5.406;2023-03-01T15:29:21;8.07;;;3.08;;
72156;SDS011;60035;52.122;5.406;2023-03-01T15:31:57;6.95;;;3.08;;
72156;SDS011;60035;52.122;5.406;2023-03-01T15:34:27;8.25;;;3.08;;
72156;SDS011;60035;52.122;5.406;2023-03-01T15:36:57;8.05;;;3.72;;
72156;SDS011;60035;52.122;5.406;2023-03-01T15:39:42;7.55;;;3.42;;
72156;SDS011;60035;52.122;5.406;2023-03-01T15:45:10;8.38;;;3.47;;
72156;SDS011;60035;52.122;5.406;2023-03-01T15:47:50;8.23;;;3.63;;
72156;SDS011;60035;52.122;5.406;2023-03-01T15:50:22;7.38;;;3.08;;
72156;SDS011;60035;52.122;5.406;2023-03-01T15:52:51;8.07;;;2.78;;
72156;SDS011;60035;52.122;5.406;2023-03-01T15:55:20;7.68;;;3.50;;
72156;SDS011;60035;52.122;5.406;2023-03-01T15:57:49;7.68;;;3.00;;
72156;SDS011;60035;52.122;5.406;2023-03-01T16:00:23;11.30;;;3.17;;
72156;SDS011;60035;52.122;5.406;2023-03-01T16:02:50;9.07;;;3.97;;
72156;SDS011;60035;52.122;5.406;2023-03-01T16:05:39;6.90;;;3.28;;
72156;SDS011;60035;52.122;5.406;2023-03-01T16:08:05;8.57;;;3.30;;
72156;SDS011;60035;52.122;5.406;2023-03-01T16:10:33;9.95;;;4.10;;
72156;SDS011;60035;52.122;5.406;2023-03-01T16:13:00;8.60;;;3.65;;
72156;SDS011;60035;52.122;5.406;2023-03-01T16:15:28;8.98;;;3.50;;
72156;SDS011;60035;52.122;5.406;2023-03-01T16:17:58;9.57;;;4.05;;
72156;SDS011;60035;52.122;5.406;2023-03-01T16:20:24;9.48;;;3.85;;
72156;SDS011;60035;52.122;5.406;2023-03-01T16:22:57;13.35;;;3.85;;
72156;SDS011;60035;52.122;5.406;2023-03-01T16:25:26;9.80;;;3.65;;
72156;SDS011;60035;52.122;5.406;2023-03-01T16:27:52;7.55;;;3.20;;
72156;SDS011;60035;52.122;5.406;2023-03-01T16:30:20;8.85;;;3.90;;
72156;SDS011;60035;52.122;5.406;2023-03-01T16:32:48;11.00;;;4.07;;
72156;SDS011;60035;52.122;5.406;2023-03-01T16:35:17;9.15;;;4.03;;
72156;SDS011;60035;52.122;5.406;2023-03-01T16:37:45;9.20;;;4.30;;
72156;SDS011;60035;52.122;5.406;2023-03-01T16:40:16;13.35;;;4.18;;